sensor_id;sensor_type;location;lat;lon;timestamp;pressure;altitude;pressure_sealevel;temperature;humidity
83514;BME280;73447;53.262;10.424;2023-11-19T00:00:06;100935.06;;;4.00;90.17
83514;BME280;73447;53.262;10.424;2023-11-19T00:02:36;100924.19;;;4.02;90.00
83514;BME280;73447;53.262;10.424;2023-11-19T00:05:01;100907.34;;;4.01;90.37
83514;BME280;73447;53.262;10.424;2023-11-19T00:07:27;100893.97;;;4.01;89.95
83514;BME280;73447;53.262;10.424;2023-11-19T00:09:52;100890.34;;;3.81;90.40
83514;BME280;73447;53.262;10.424;2023-11-19T00:12:20;100875.47;;;4.00;90.77
83514;BME280;73447;53.262;10.424;2023-11-19T00:14:45;100861.25;;;3.93;90.25
83514;BME280;73447;53.262;10.424;2023-11-19T00:17:11;100862.38;;;4.12;89.87
83514;BME280;73447;53.262;10.424;2023-11-19T00:19:36;100866.53;;;4.21;89.59
83514;BME280;73447;53.262;10.424;2023-11-19T00:22:01;100867.03;;;3.96;90.03
83514;BME280;73447;53.262;10.424;2023-11-19T00:24:29;100853.97;;;4.15;90.10
83514;BME280;73447;53.262;10.424;2023-11-19T00:26:55;100843.59;;;3.98;90.22
83514;BME280;73447;53.262;10.424;2023-11-19T00:29:21;100827.41;;;4.06;90.85
83514;BME280;73447;53.262;10.424;2023-11-19T00:31:47;100835.22;;;4.08;90.23
83514;BME280;73447;53.262;10.424;2023-11-19T00:34:12;100831.09;;;4.05;90.75
83514;BME280;73447;53.262;10.424;2023-11-19T00:36:38;100826.59;;;4.06;90.65
83514;BME280;73447;53.262;10.424;2023-11-19T00:39:04;100813.84;;;4.08;89.96
83514;BME280;73447;53.262;10.424;2023-11-19T00:41:30;100796.94;;;3.94;90.67
83514;BME280;73447;53.262;10.424;2023-11-19T00:43:56;100787.75;;;4.17;90.25
83514;BME280;73447;53.262;10.424;2023-11-19T00:46:21;100773.50;;;3.96;90.59
83514;BME280;73447;53.262;10.424;2023-11-19T00:48:46;100775.59;;;4.07;90.30
83514;BME280;73447;53.262;10.424;2023-11-19T00:51:12;100785.09;;;4.23;90.51
83514;BME280;73447;53.262;10.424;2023-11-19T00:53:38;100769.84;;;4.04;90.22
83514;BME280;73447;53.262;10.424;2023-11-19T00:56:03;100770.66;;;4.04;90.54
83514;BME280;73447;53.262;10.424;2023-11-19T00:58:29;100762.00;;;3.96;90.79
83514;BME280;73447;53.262;10.424;2023-11-19T01:00:54;100755.41;;;3.98;90.18
83514;BME280;73447;53.262;10.424;2023-11-19T01:03:20;100764.50;;;4.17;89.67
83514;BME280;73447;53.262;10.424;2023-11-19T01:05:45;100759.41;;;4.16;90.17
83514;BME280;73447;53.262;10.424;2023-11-19T01:08:12;100762.91;;;4.23;90.27
83514;BME280;73447;53.262;10.424;2023-11-19T01:10:37;100756.75;;;4.22;90.34
83514;BME280;73447;53.262;10.424;2023-11-19T01:13:03;100735.75;;;4.13;90.26
83514;BME280;73447;53.262;10.424;2023-11-19T01:15:31;100722.59;;;4.18;90.59
83514;BME280;73447;53.262;10.424;2023-11-19T01:17:56;100717.88;;;4.20;89.75
83514;BME280;73447;53.262;10.424;2023-11-19T01:20:22;100710.84;;;4.19;90.33
83514;BME280;73447;53.262;10.424;2023-11-19T01:22:47;100706.94;;;4.15;90.53
83514;BME280;73447;53.262;10.424;2023-11-19T01:25:13;100700.38;;;4.11;90.62
83514;BME280;73447;53.262;10.424;2023-11-19T01:27:39;100698.72;;;4.09;90.71
83514;BME280;73447;53.262;10.424;2023-11-19T01:30:04;100685.75;;;4.00;90.59
83514;BME280;73447;53.262;10.424;2023-11-19T01:32:31;100689.47;;;4.19;90.57
83514;BME280;73447;53.262;10.424;2023-11-19T01:34:57;100689.06;;;4.22;90.27
83514;BME280;73447;53.262;10.424;2023-11-19T01:37:22;100675.91;;;4.27;90.24
83514;BME280;73447;53.262;10.424;2023-11-19T01:39:48;100663.19;;;4.16;90.58
83514;BME280;73447;53.262;10.424;2023-11-19T01:42:13;100647.34;;;4.27;90.06
83514;BME280;73447;53.262;10.424;2023-11-19T01:44:38;100648.56;;;4.25;90.31
83514;BME280;73447;53.262;10.424;2023-11-19T01:47:04;100640.94;;;4.15;90.11
83514;BME280;73447;53.262;10.424;2023-11-19T01:49:31;100642.34;;;3.91;90.24
83514;BME280;73447;53.262;10.424;2023-11-19T01:51:57;100639.34;;;4.21;90.41
83514;BME280;73447;53.262;10.424;2023-11-19T01:54:23;100629.41;;;4.01;90.92
83514;BME280;73447;53.262;10.424;2023-11-19T01:56:48;100624.31;;;4.13;90.56
83514;BME280;73447;53.262;10.424;2023-11-19T01:59:14;100625.31;;;4.05;90.26
83514;BME280;73447;53.262;10.424;2023-11-19T02:01:41;100618.53;;;3.96;90.49
83514;BME280;73447;53.262;10.424;2023-11-19T02:04:08;100605.78;;;4.12;90.97
83514;BME280;73447;53.262;10.424;2023-11-19T02:06:34;100608.66;;;4.03;90.56
83514;BME280;73447;53.262;10.424;2023-11-19T02:09:01;100598.81;;;4.04;91.09
83514;BME280;73447;53.262;10.424;2023-11-19T02:11:28;100590.16;;;4.15;90.81
83514;BME280;73447;53.262;10.424;2023-11-19T02:13:57;100579.69;;;4.27;90.72
83514;BME280;73447;53.262;10.424;2023-11-19T02:16:23;100586.88;;;4.40;91.15
83514;BME280;73447;53.262;10.424;2023-11-19T02:18:48;100578.66;;;4.28;90.51
83514;BME280;73447;53.262;10.424;2023-11-19T02:21:13;100584.81;;;4.35;90.66
83514;BME280;73447;53.262;10.424;2023-11-19T02:23:40;100591.63;;;4.24;90.92
83514;BME280;73447;53.262;10.424;2023-11-19T02:28:51;100563.44;;;4.22;91.16
83514;BME280;73447;53.262;10.424;2023-11-19T02:31:17;100576.59;;;4.03;90.96
83514;BME280;73447;53.262;10.424;2023-11-19T02:33:44;100575.59;;;4.31;91.55
83514;BME280;73447;53.262;10.424;2023-11-19T02:36:09;100559.75;;;4.36;91.26
83514;BME280;73447;53.262;10.424;2023-11-19T02:38:35;100558.09;;;4.35;91.03
83514;BME280;73447;53.262;10.424;2023-11-19T02:41:03;100545.13;;;4.32;91.24
83514;BME280;73447;53.262;10.424;2023-11-19T02:43:34;100536.50;;;4.30;91.14
83514;BME280;73447;53.262;10.424;2023-11-19T02:46:01;100543.09;;;4.41;91.27
83514;BME280;73447;53.262;10.424;2023-11-19T02:48:26;100519.03;;;4.48;90.30
83514;BME280;73447;53.262;10.424;2023-11-19T02:50:52;100508.72;;;4.44;90.48
83514;BME280;73447;53.262;10.424;2023-11-19T02:53:17;100497.63;;;4.41;90.58
83514;BME280;73447;53.262;10.424;2023-11-19T02:55:43;100477.44;;;4.58;90.91
83514;BME280;73447;53.262;10.424;2023-11-19T02:58:14;100475.41;;;4.40;90.74
83514;BME280;73447;53.262;10.424;2023-11-19T03:00:45;100473.75;;;4.53;90.81
83514;BME280;73447;53.262;10.424;2023-11-19T03:03:17;100471.66;;;4.61;90.36
83514;BME280;73447;53.262;10.424;2023-11-19T03:05:46;100465.94;;;4.44;91.10
83514;BME280;73447;53.262;10.424;2023-11-19T03:08:12;100452.16;;;4.54;90.45
83514;BME280;73447;53.262;10.424;2023-11-19T03:10:37;100452.91;;;4.68;90.64
83514;BME280;73447;53.262;10.424;2023-11-19T03:13:04;100450.25;;;4.61;90.51
83514;BME280;73447;53.262;10.424;2023-11-19T03:15:29;100440.75;;;4.72;90.53
83514;BME280;73447;53.262;10.424;2023-11-19T03:17:55;100440.56;;;4.67;90.87
83514;BME280;73447;53.262;10.424;2023-11-19T03:20:20;100427.38;;;4.72;90.66
83514;BME280;73447;53.262;10.424;2023-11-19T03:22:46;100427.13;;;4.80;90.38
83514;BME280;73447;53.262;10.424;2023-11-19T03:25:11;100422.19;;;4.84;90.64
83514;BME280;73447;53.262;10.424;2023-11-19T03:27:38;100421.34;;;4.83;90.58
83514;BME280;73447;53.262;10.424;2023-11-19T03:30:09;100406.84;;;4.66;90.59
83514;BME280;73447;53.262;10.424;2023-11-19T03:32:35;100406.66;;;4.61;91.35
83514;BME280;73447;53.262;10.424;2023-11-19T03:35:04;100413.34;;;4.83;91.17
83514;BME280;73447;53.262;10.424;2023-11-19T03:37:32;100406.53;;;4.88;90.73
83514;BME280;73447;53.262;10.424;2023-11-19T03:39:58;100409.81;;;4.90;90.33
83514;BME280;73447;53.262;10.424;2023-11-19T03:42:27;100397.19;;;5.04;90.90
83514;BME280;73447;53.262;10.424;2023-11-19T03:44:53;100390.84;;;4.98;90.19
83514;BME280;73447;53.262;10.424;2023-11-19T03:47:19;100389.88;;;4.79;90.99
83514;BME280;73447;53.262;10.424;2023-11-19T03:49:51;100385.13;;;4.88;90.48
83514;BME280;73447;53.262;10.424;2023-11-19T03:52:18;100378.72;;;4.89;90.71
83514;BME280;73447;53.262;10.424;2023-11-19T03:54:44;100370.56;;;5.09;90.14
83514;BME280;73447;53.262;10.424;2023-11-19T03:57:09;100373.91;;;5.04;90.30
83514;BME280;73447;53.262;10.424;2023-11-19T03:59:39;100372.66;;;5.07;90.10
83514;BME280;73447;53.262;10.424;2023-11-19T04:02:04;100371.81;;;5.13;90.32
83514;BME280;73447;53.262;10.424;2023-11-19T04:04:30;100364.75;;;5.18;90.19
83514;BME280;73447;53.262;10.424;2023-11-19T04:06:56;100369.56;;;5.10;90.02
83514;BME280;73447;53.262;10.424;2023-11-19T04:09:21;100372.19;;;5.16;90.71
83514;BME280;73447;53.262;10.424;2023-11-19T04:11:47;100372.25;;;5.35;90.37
83514;BME280;73447;53.262;10.424;2023-11-19T04:14:13;100371.31;;;5.23;89.77
83514;BME280;73447;53.262;10.424;2023-11-19T04:16:39;100369.84;;;5.27;89.94
83514;BME280;73447;53.262;10.424;2023-11-19T04:19:04;100355.97;;;5.36;90.00
83514;BME280;73447;53.262;10.424;2023-11-19T04:21:30;100368.78;;;5.28;90.66
83514;BME280;73447;53.262;10.424;2023-11-19T04:23:56;100370.41;;;5.35;89.87
83514;BME280;73447;53.262;10.424;2023-11-19T04:26:21;100355.94;;;5.43;90.55
83514;BME280;73447;53.262;10.424;2023-11-19T04:28:46;100357.94;;;5.48;90.18
83514;BME280;73447;53.262;10.424;2023-11-19T04:31:12;100341.59;;;5.31;90.19
83514;BME280;73447;53.262;10.424;2023-11-19T04:33:37;100334.34;;;5.38;90.36
83514;BME280;73447;53.262;10.424;2023-11-19T04:36:03;100336.38;;;5.61;90.28
83514;BME280;73447;53.262;10.424;2023-11-19T04:38:28;100331.56;;;5.51;90.22
83514;BME280;73447;53.262;10.424;2023-11-19T04:40:54;100331.13;;;5.73;90.37
83514;BME280;73447;53.262;10.424;2023-11-19T04:43:19;100326.03;;;5.65;89.69
83514;BME280;73447;53.262;10.424;2023-11-19T04:45:45;100318.31;;;5.56;90.03
83514;BME280;73447;53.262;10.424;2023-11-19T04:48:10;100331.59;;;5.70;89.82
83514;BME280;73447;53.262;10.424;2023-11-19T04:50:37;100331.81;;;5.68;90.37
83514;BME280;73447;53.262;10.424;2023-11-19T04:53:03;100332.47;;;5.82;90.45
83514;BME280;73447;53.262;10.424;2023-11-19T04:55:28;100316.47;;;5.94;90.15
83514;BME280;73447;53.262;10.424;2023-11-19T04:57:54;100313.59;;;5.95;90.19
83514;BME280;73447;53.262;10.424;2023-11-19T05:00:19;100322.38;;;6.03;90.45
83514;BME280;73447;53.262;10.424;2023-11-19T05:02:46;100320.47;;;5.85;90.50
83514;BME280;73447;53.262;10.424;2023-11-19T05:05:12;100325.66;;;6.05;90.74
83514;BME280;73447;53.262;10.424;2023-11-19T05:07:37;100315.69;;;6.12;90.61
83514;BME280;73447;53.262;10.424;2023-11-19T05:10:03;100315.69;;;6.12;90.74
83514;BME280;73447;53.262;10.424;2023-11-19T05:12:29;100311.50;;;6.16;90.36
83514;BME280;73447;53.262;10.424;2023-11-19T05:14:55;100315.91;;;6.10;89.92
83514;BME280;73447;53.262;10.424;2023-11-19T05:17:20;100311.88;;;6.20;90.51
83514;BME280;73447;53.262;10.424;2023-11-19T05:19:46;100310.81;;;6.39;90.14
83514;BME280;73447;53.262;10.424;2023-11-19T05:22:13;100299.69;;;6.24;90.48
83514;BME280;73447;53.262;10.424;2023-11-19T05:24:38;100302.06;;;6.32;90.63
83514;BME280;73447;53.262;10.424;2023-11-19T05:27:04;100296.47;;;6.34;90.99
83514;BME280;73447;53.262;10.424;2023-11-19T05:29:30;100300.38;;;6.49;90.38
83514;BME280;73447;53.262;10.424;2023-11-19T05:31:55;100296.44;;;6.52;90.11
83514;BME280;73447;53.262;10.424;2023-11-19T05:34:21;100304.16;;;6.60;89.78
83514;BME280;73447;53.262;10.424;2023-11-19T05:36:46;100296.16;;;6.72;90.10
83514;BME280;73447;53.262;10.424;2023-11-19T05:39:12;100296.38;;;6.71;89.65
83514;BME280;73447;53.262;10.424;2023-11-19T05:41:38;100286.25;;;6.84;89.38
83514;BME280;73447;53.262;10.424;2023-11-19T05:44:04;100293.63;;;6.89;90.20
83514;BME280;73447;53.262;10.424;2023-11-19T05:46:29;100286.34;;;6.78;90.34
83514;BME280;73447;53.262;10.424;2023-11-19T05:48:54;100291.03;;;6.82;90.55
83514;BME280;73447;53.262;10.424;2023-11-19T05:51:20;100285.38;;;7.02;89.96
83514;BME280;73447;53.262;10.424;2023-11-19T05:53:45;100283.81;;;6.83;90.40
83514;BME280;73447;53.262;10.424;2023-11-19T05:56:11;100271.94;;;7.02;89.87
83514;BME280;73447;53.262;10.424;2023-11-19T05:58:37;100275.66;;;7.01;90.11
83514;BME280;73447;53.262;10.424;2023-11-19T06:01:02;100275.09;;;7.11;89.82
83514;BME280;73447;53.262;10.424;2023-11-19T06:03:28;100269.63;;;7.18;89.77
83514;BME280;73447;53.262;10.424;2023-11-19T06:05:54;100260.88;;;7.22;89.53
83514;BME280;73447;53.262;10.424;2023-11-19T06:08:19;100271.97;;;7.26;89.74
83514;BME280;73447;53.262;10.424;2023-11-19T06:10:46;100274.66;;;7.14;90.56
83514;BME280;73447;53.262;10.424;2023-11-19T06:13:12;100267.75;;;7.06;89.71
83514;BME280;73447;53.262;10.424;2023-11-19T06:15:40;100271.38;;;7.12;89.88
83514;BME280;73447;53.262;10.424;2023-11-19T06:18:06;100274.63;;;7.02;90.88
83514;BME280;73447;53.262;10.424;2023-11-19T06:20:32;100273.56;;;7.03;90.84
83514;BME280;73447;53.262;10.424;2023-11-19T06:22:58;100280.59;;;7.04;90.90
83514;BME280;73447;53.262;10.424;2023-11-19T06:25:24;100278.34;;;7.01;90.19
83514;BME280;73447;53.262;10.424;2023-11-19T06:27:50;100286.66;;;7.12;90.29
83514;BME280;73447;53.262;10.424;2023-11-19T06:30:16;100275.47;;;7.15;90.60
83514;BME280;73447;53.262;10.424;2023-11-19T06:32:41;100266.38;;;7.16;90.27
83514;BME280;73447;53.262;10.424;2023-11-19T06:35:07;100268.69;;;7.12;90.81
83514;BME280;73447;53.262;10.424;2023-11-19T06:37:33;100267.06;;;7.23;90.32
83514;BME280;73447;53.262;10.424;2023-11-19T06:39:59;100268.44;;;7.14;91.01
83514;BME280;73447;53.262;10.424;2023-11-19T06:42:24;100270.19;;;7.08;91.37
83514;BME280;73447;53.262;10.424;2023-11-19T06:44:49;100258.66;;;7.31;91.55
83514;BME280;73447;53.262;10.424;2023-11-19T06:47:15;100260.53;;;7.42;91.55
83514;BME280;73447;53.262;10.424;2023-11-19T06:49:43;100269.88;;;7.52;91.49
83514;BME280;73447;53.262;10.424;2023-11-19T06:52:09;100275.91;;;7.59;91.84
83514;BME280;73447;53.262;10.424;2023-11-19T06:54:34;100271.81;;;7.80;91.83
83514;BME280;73447;53.262;10.424;2023-11-19T06:57:00;100282.31;;;7.93;91.74
83514;BME280;73447;53.262;10.424;2023-11-19T06:59:26;100287.44;;;8.07;91.61
83514;BME280;73447;53.262;10.424;2023-11-19T07:01:51;100281.19;;;8.30;91.80
83514;BME280;73447;53.262;10.424;2023-11-19T07:04:16;100281.13;;;8.42;91.69
83514;BME280;73447;53.262;10.424;2023-11-19T07:06:42;100279.25;;;8.71;91.19
83514;BME280;73447;53.262;10.424;2023-11-19T07:09:08;100279.34;;;8.76;91.24
83514;BME280;73447;53.262;10.424;2023-11-19T07:11:40;100297.31;;;8.87;90.95
83514;BME280;73447;53.262;10.424;2023-11-19T07:14:07;100288.06;;;9.12;90.36
83514;BME280;73447;53.262;10.424;2023-11-19T07:16:33;100283.78;;;9.16;90.49
83514;BME280;73447;53.262;10.424;2023-11-19T07:19:05;100282.50;;;9.36;90.20
83514;BME280;73447;53.262;10.424;2023-11-19T07:21:31;100282.63;;;9.46;89.69
83514;BME280;73447;53.262;10.424;2023-11-19T07:23:57;100280.34;;;9.38;89.70
83514;BME280;73447;53.262;10.424;2023-11-19T07:26:23;100274.63;;;9.51;89.43
83514;BME280;73447;53.262;10.424;2023-11-19T07:28:51;100278.72;;;9.54;89.27
83514;BME280;73447;53.262;10.424;2023-11-19T07:31:17;100287.06;;;9.52;89.28
83514;BME280;73447;53.262;10.424;2023-11-19T07:33:46;100293.56;;;9.56;89.70
83514;BME280;73447;53.262;10.424;2023-11-19T07:36:13;100283.28;;;9.53;89.45
83514;BME280;73447;53.262;10.424;2023-11-19T07:38:38;100291.44;;;9.58;89.58
83514;BME280;73447;53.262;10.424;2023-11-19T07:41:05;100291.09;;;9.72;89.49
83514;BME280;73447;53.262;10.424;2023-11-19T07:43:32;100286.88;;;9.59;88.89
83514;BME280;73447;53.262;10.424;2023-11-19T07:45:57;100299.94;;;9.50;89.65
83514;BME280;73447;53.262;10.424;2023-11-19T07:48:24;100293.03;;;9.76;88.83
83514;BME280;73447;53.262;10.424;2023-11-19T07:50:50;100292.06;;;9.82;87.65
83514;BME280;73447;53.262;10.424;2023-11-19T07:53:19;100289.47;;;9.71;88.05
83514;BME280;73447;53.262;10.424;2023-11-19T07:55:45;100294.28;;;9.69;88.32
83514;BME280;73447;53.262;10.424;2023-11-19T07:58:11;100305.41;;;9.72;87.74
83514;BME280;73447;53.262;10.424;2023-11-19T08:00:38;100305.16;;;9.74;87.61
83514;BME280;73447;53.262;10.424;2023-11-19T08:03:04;100306.34;;;9.83;87.37
83514;BME280;73447;53.262;10.424;2023-11-19T08:05:30;100309.34;;;9.87;87.33
83514;BME280;73447;53.262;10.424;2023-11-19T08:07:56;100317.19;;;9.88;86.79
83514;BME280;73447;53.262;10.424;2023-11-19T08:10:21;100304.94;;;9.97;86.59
83514;BME280;73447;53.262;10.424;2023-11-19T08:12:48;100316.09;;;10.06;85.72
83514;BME280;73447;53.262;10.424;2023-11-19T08:15:13;100311.88;;;10.32;86.02
83514;BME280;73447;53.262;10.424;2023-11-19T08:17:38;100319.63;;;10.51;85.11
83514;BME280;73447;53.262;10.424;2023-11-19T08:20:04;100327.59;;;10.40;85.69
83514;BME280;73447;53.262;10.424;2023-11-19T08:22:36;100325.03;;;10.51;84.89
83514;BME280;73447;53.262;10.424;2023-11-19T08:25:01;100319.84;;;10.44;84.26
83514;BME280;73447;53.262;10.424;2023-11-19T08:27:26;100323.13;;;10.29;84.49
83514;BME280;73447;53.262;10.424;2023-11-19T08:29:55;100324.34;;;10.38;84.58
83514;BME280;73447;53.262;10.424;2023-11-19T08:32:27;100329.34;;;10.30;85.00
83514;BME280;73447;53.262;10.424;2023-11-19T08:34:53;100330.22;;;10.35;85.18
83514;BME280;73447;53.262;10.424;2023-11-19T08:37:19;100330.88;;;10.43;84.61
83514;BME280;73447;53.262;10.424;2023-11-19T08:39:49;100333.38;;;10.49;84.18
83514;BME280;73447;53.262;10.424;2023-11-19T08:42:16;100330.88;;;10.43;84.98
83514;BME280;73447;53.262;10.424;2023-11-19T08:44:42;100329.19;;;10.36;84.85
83514;BME280;73447;53.262;10.424;2023-11-19T08:47:12;100326.28;;;10.43;84.05
83514;BME280;73447;53.262;10.424;2023-11-19T08:49:39;100327.53;;;10.35;84.39
83514;BME280;73447;53.262;10.424;2023-11-19T08:52:05;100338.06;;;10.15;85.74
83514;BME280;73447;53.262;10.424;2023-11-19T08:54:32;100330.53;;;10.17;86.12
83514;BME280;73447;53.262;10.424;2023-11-19T08:56:58;100328.53;;;10.29;85.79
83514;BME280;73447;53.262;10.424;2023-11-19T08:59:24;100341.00;;;10.13;86.72
83514;BME280;73447;53.262;10.424;2023-11-19T09:01:49;100343.94;;;10.12;86.40
83514;BME280;73447;53.262;10.424;2023-11-19T09:04:15;100334.31;;;10.16;85.32
83514;BME280;73447;53.262;10.424;2023-11-19T09:06:41;100347.91;;;10.04;86.89
83514;BME280;73447;53.262;10.424;2023-11-19T09:09:07;100340.69;;;10.10;86.09
83514;BME280;73447;53.262;10.424;2023-11-19T09:11:33;100349.94;;;10.14;85.49
83514;BME280;73447;53.262;10.424;2023-11-19T09:13:58;100349.34;;;10.12;84.83
83514;BME280;73447;53.262;10.424;2023-11-19T09:16:24;100349.69;;;9.98;86.27
83514;BME280;73447;53.262;10.424;2023-11-19T09:18:50;100349.22;;;10.01;85.42
83514;BME280;73447;53.262;10.424;2023-11-19T09:21:15;100345.09;;;10.16;84.28
83514;BME280;73447;53.262;10.424;2023-11-19T09:23:41;100354.59;;;10.01;84.57
83514;BME280;73447;53.262;10.424;2023-11-19T09:26:08;100356.31;;;10.08;84.74
83514;BME280;73447;53.262;10.424;2023-11-19T09:28:33;100358.38;;;10.00;84.81
83514;BME280;73447;53.262;10.424;2023-11-19T09:30:59;100353.38;;;10.31;84.02
83514;BME280;73447;53.262;10.424;2023-11-19T09:33:25;100349.81;;;10.26;84.21
83514;BME280;73447;53.262;10.424;2023-11-19T09:35:51;100348.63;;;10.38;83.87
83514;BME280;73447;53.262;10.424;2023-11-19T09:38:16;100349.88;;;10.31;82.83
83514;BME280;73447;53.262;10.424;2023-11-19T09:40:42;100355.53;;;10.29;83.29
83514;BME280;73447;53.262;10.424;2023-11-19T09:43:07;100357.28;;;10.40;82.53
83514;BME280;73447;53.262;10.424;2023-11-19T09:45:48;100349.13;;;10.35;83.29
83514;BME280;73447;53.262;10.424;2023-11-19T09:48:16;100364.75;;;10.55;82.30
83514;BME280;73447;53.262;10.424;2023-11-19T09:50:46;100350.03;;;10.41;82.00
83514;BME280;73447;53.262;10.424;2023-11-19T09:53:12;100361.09;;;10.23;83.06
83514;BME280;73447;53.262;10.424;2023-11-19T09:55:38;100358.47;;;10.28;82.34
83514;BME280;73447;53.262;10.424;2023-11-19T09:58:03;100362.53;;;10.30;82.33
83514;BME280;73447;53.262;10.424;2023-11-19T10:00:30;100369.00;;;10.29;82.59
83514;BME280;73447;53.262;10.424;2023-11-19T10:02:56;100366.19;;;10.19;83.07
83514;BME280;73447;53.262;10.424;2023-11-19T10:05:23;100362.78;;;10.29;82.45
83514;BME280;73447;53.262;10.424;2023-11-19T10:07:50;100369.19;;;10.23;82.55
83514;BME280;73447;53.262;10.424;2023-11-19T10:10:15;100369.56;;;10.31;81.49
83514;BME280;73447;53.262;10.424;2023-11-19T10:12:45;100360.44;;;10.32;81.74
83514;BME280;73447;53.262;10.424;2023-11-19T10:15:19;100353.53;;;10.42;81.02
83514;BME280;73447;53.262;10.424;2023-11-19T10:17:44;100355.44;;;10.41;82.01
83514;BME280;73447;53.262;10.424;2023-11-19T10:20:12;100366.94;;;10.58;81.94
83514;BME280;73447;53.262;10.424;2023-11-19T10:22:38;100365.72;;;10.66;80.44
83514;BME280;73447;53.262;10.424;2023-11-19T10:25:05;100360.69;;;10.53;80.58
83514;BME280;73447;53.262;10.424;2023-11-19T10:27:30;100366.97;;;10.36;80.75
83514;BME280;73447;53.262;10.424;2023-11-19T10:29:59;100375.13;;;10.42;80.41
83514;BME280;73447;53.262;10.424;2023-11-19T10:32:24;100368.03;;;10.57;79.04
83514;BME280;73447;53.262;10.424;2023-11-19T10:34:50;100371.06;;;10.39;80.30
83514;BME280;73447;53.262;10.424;2023-11-19T10:37:28;100362.88;;;10.34;80.04
83514;BME280;73447;53.262;10.424;2023-11-19T10:39:57;100372.44;;;10.42;80.00
83514;BME280;73447;53.262;10.424;2023-11-19T10:42:23;100370.16;;;10.55;79.73
83514;BME280;73447;53.262;10.424;2023-11-19T10:44:48;100371.03;;;10.61;79.43
83514;BME280;73447;53.262;10.424;2023-11-19T10:47:15;100364.66;;;10.72;78.92
83514;BME280;73447;53.262;10.424;2023-11-19T10:49:46;100368.25;;;10.78;78.49
83514;BME280;73447;53.262;10.424;2023-11-19T10:52:19;100366.75;;;10.65;79.67
83514;BME280;73447;53.262;10.424;2023-11-19T10:54:49;100357.59;;;10.66;80.32
83514;BME280;73447;53.262;10.424;2023-11-19T10:57:20;100365.59;;;10.56;81.10
83514;BME280;73447;53.262;10.424;2023-11-19T10:59:47;100369.47;;;10.65;80.74
83514;BME280;73447;53.262;10.424;2023-11-19T11:02:16;100375.34;;;10.62;81.01
83514;BME280;73447;53.262;10.424;2023-11-19T11:04:47;100357.84;;;10.65;80.43
83514;BME280;73447;53.262;10.424;2023-11-19T11:07:14;100357.16;;;10.74;79.46
83514;BME280;73447;53.262;10.424;2023-11-19T11:09:41;100365.78;;;10.49;80.81
83514;BME280;73447;53.262;10.424;2023-11-19T11:12:08;100358.38;;;10.39;80.65
83514;BME280;73447;53.262;10.424;2023-11-19T11:14:37;100369.72;;;10.42;81.98
83514;BME280;73447;53.262;10.424;2023-11-19T11:17:03;100371.72;;;10.29;81.55
83514;BME280;73447;53.262;10.424;2023-11-19T11:19:33;100372.69;;;10.23;82.04
83514;BME280;73447;53.262;10.424;2023-11-19T11:22:00;100366.31;;;10.29;81.89
83514;BME280;73447;53.262;10.424;2023-11-19T11:33:17;100360.34;;;10.71;81.69
83514;BME280;73447;53.262;10.424;2023-11-19T11:38:41;100367.81;;;11.13;79.08
83514;BME280;73447;53.262;10.424;2023-11-19T11:41:23;100365.06;;;11.08;79.96
83514;BME280;73447;53.262;10.424;2023-11-19T11:43:52;100368.34;;;11.16;78.73
83514;BME280;73447;53.262;10.424;2023-11-19T11:49:02;100368.19;;;11.27;77.97
83514;BME280;73447;53.262;10.424;2023-11-19T11:52:00;100365.66;;;11.16;77.40
83514;BME280;73447;53.262;10.424;2023-11-19T11:54:27;100373.28;;;11.56;77.17
83514;BME280;73447;53.262;10.424;2023-11-19T11:59:46;100371.59;;;11.82;75.96
83514;BME280;73447;53.262;10.424;2023-11-19T12:02:16;100375.88;;;11.41;76.55
83514;BME280;73447;53.262;10.424;2023-11-19T12:04:43;100383.63;;;11.00;77.83
83514;BME280;73447;53.262;10.424;2023-11-19T12:07:13;100376.16;;;10.85;78.79
83514;BME280;73447;53.262;10.424;2023-11-19T12:09:42;100386.75;;;10.64;79.27
83514;BME280;73447;53.262;10.424;2023-11-19T12:12:17;100370.47;;;10.81;78.55
83514;BME280;73447;53.262;10.424;2023-11-19T12:20:03;100372.41;;;11.45;76.16
83514;BME280;73447;53.262;10.424;2023-11-19T12:22:30;100366.19;;;11.45;76.05
83514;BME280;73447;53.262;10.424;2023-11-19T12:24:56;100375.41;;;11.17;77.49
83514;BME280;73447;53.262;10.424;2023-11-19T12:27:22;100371.56;;;11.12;78.45
83514;BME280;73447;53.262;10.424;2023-11-19T12:29:48;100380.97;;;11.37;78.00
83514;BME280;73447;53.262;10.424;2023-11-19T12:32:14;100371.44;;;11.29;77.08
83514;BME280;73447;53.262;10.424;2023-11-19T12:34:39;100364.09;;;11.20;77.59
83514;BME280;73447;53.262;10.424;2023-11-19T12:37:05;100360.06;;;11.27;78.52
83514;BME280;73447;53.262;10.424;2023-11-19T12:39:31;100364.53;;;11.44;76.92
83514;BME280;73447;53.262;10.424;2023-11-19T12:41:56;100363.34;;;11.29;77.43
83514;BME280;73447;53.262;10.424;2023-11-19T12:44:25;100358.28;;;11.38;77.01
83514;BME280;73447;53.262;10.424;2023-11-19T12:47:06;100354.25;;;11.08;77.54
83514;BME280;73447;53.262;10.424;2023-11-19T12:49:33;100360.25;;;11.16;77.22
83514;BME280;73447;53.262;10.424;2023-11-19T12:51:59;100370.41;;;11.03;77.17
83514;BME280;73447;53.262;10.424;2023-11-19T12:54:35;100369.94;;;11.11;78.04
83514;BME280;73447;53.262;10.424;2023-11-19T12:57:01;100367.88;;;10.91;78.24
83514;BME280;73447;53.262;10.424;2023-11-19T12:59:28;100361.56;;;10.86;77.82
83514;BME280;73447;53.262;10.424;2023-11-19T13:01:54;100368.75;;;10.75;79.36
83514;BME280;73447;53.262;10.424;2023-11-19T13:04:20;100360.72;;;10.80;78.74
83514;BME280;73447;53.262;10.424;2023-11-19T13:06:46;100366.53;;;10.94;77.77